createdAt,value
2018-06-08T00:01:46.112Z,18.17
2018-06-08T00:04:14.734Z,23.73
2018-06-08T00:06:42.850Z,18.80
2018-06-08T00:09:11.262Z,19.87
2018-06-08T00:11:39.689Z,17.03
2018-06-08T00:14:07.865Z,17.13
2018-06-08T00:16:36.290Z,15.57
2018-06-08T00:19:04.974Z,26.83
2018-06-08T00:21:33.386Z,19.27
2018-06-08T00:24:01.777Z,19.20
2018-06-08T00:26:29.907Z,15.80
2018-06-08T00:28:58.453Z,23.27
2018-06-08T00:31:26.669Z,24.40
2018-06-08T00:33:55.158Z,19.40
2018-06-08T00:36:23.578Z,19.50
2018-06-08T00:38:52.111Z,17.67
2018-06-08T00:41:20.246Z,19.60
2018-06-08T00:43:48.344Z,18.83
2018-06-08T00:46:16.494Z,18.93
2018-06-08T00:48:45.044Z,19.20
2018-06-08T00:51:13.458Z,18.40
2018-06-08T00:53:41.592Z,21.60
2018-06-08T00:56:21.914Z,20.43
2018-06-08T00:58:50.302Z,20.00
2018-06-08T01:01:18.848Z,26.37
2018-06-08T01:03:46.981Z,27.53
2018-06-08T01:06:15.208Z,25.80
2018-06-08T01:08:43.398Z,22.07
2018-06-08T01:11:11.488Z,24.30
2018-06-08T01:13:39.584Z,17.80
2018-06-08T01:16:07.810Z,33.47
2018-06-08T01:18:43.045Z,23.70
2018-06-08T01:21:11.530Z,21.77
2018-06-08T01:23:40.113Z,25.47
2018-06-08T01:26:08.528Z,23.03
2018-06-08T01:28:36.930Z,27.63
2018-06-08T01:31:05.636Z,25.93
2018-06-08T01:33:33.759Z,26.30
2018-06-08T01:36:02.350Z,25.90
2018-06-08T01:38:30.920Z,22.70
2018-06-08T01:40:59.408Z,26.37
2018-06-08T01:43:27.528Z,34.53
2018-06-08T01:45:55.959Z,29.20
2018-06-08T01:48:24.056Z,37.00
2018-06-08T01:50:52.503Z,31.17
2018-06-08T01:53:20.648Z,23.80
2018-06-08T01:55:49.194Z,22.97
2018-06-08T01:58:17.703Z,22.67
2018-06-08T02:00:46.123Z,20.30
2018-06-08T02:03:14.255Z,20.83
2018-06-08T02:05:42.668Z,21.93
2018-06-08T02:08:11.173Z,23.97
2018-06-08T02:10:39.292Z,32.83
2018-06-08T02:13:07.734Z,25.60
2018-06-08T02:15:35.961Z,28.23
2018-06-08T02:18:04.155Z,33.13
2018-06-08T02:20:32.242Z,36.00
2018-06-08T02:23:00.646Z,28.57
2018-06-08T02:25:28.881Z,23.50
2018-06-08T02:27:57.099Z,35.63
2018-06-08T02:30:25.221Z,32.80
2018-06-08T02:32:53.649Z,42.30
2018-06-08T02:35:21.757Z,37.23
2018-06-08T02:37:50.395Z,28.47
2018-06-08T02:40:18.822Z,27.37
2018-06-08T02:42:47.352Z,28.10
2018-06-08T02:45:15.491Z,34.87
2018-06-08T02:47:44.014Z,31.33
2018-06-08T02:50:12.566Z,30.70
2018-06-08T02:52:41.080Z,34.50
2018-06-08T02:55:09.233Z,44.20
2018-06-08T02:57:37.335Z,32.93
2018-06-08T03:00:05.623Z,28.57
2018-06-08T03:02:34.135Z,32.63
2018-06-08T03:05:02.650Z,32.00
2018-06-08T03:07:30.844Z,33.50
2018-06-08T03:09:58.929Z,36.90
2018-06-08T03:12:27.056Z,42.67
2018-06-08T03:14:55.146Z,33.27
2018-06-08T03:17:24.246Z,42.30
2018-06-08T03:19:52.346Z,41.10
2018-06-08T03:22:20.826Z,35.57
2018-06-08T03:24:49.614Z,35.50
2018-06-08T03:27:18.156Z,34.40
2018-06-08T03:29:46.334Z,28.57
2018-06-08T03:32:14.750Z,33.83
2018-06-08T03:34:42.929Z,37.63
2018-06-08T03:37:11.350Z,32.83
2018-06-08T03:39:39.938Z,32.57
2018-06-08T03:42:08.324Z,36.77
2018-06-08T03:44:36.435Z,33.10
2018-06-08T03:47:04.630Z,36.83
2018-06-08T03:49:32.746Z,43.13
2018-06-08T03:52:01.300Z,27.63
2018-06-08T03:54:29.764Z,32.10
2018-06-08T03:56:58.539Z,32.20
2018-06-08T03:59:27.000Z,28.50
2018-06-08T04:01:55.114Z,28.73
2018-06-08T04:04:23.565Z,32.50
2018-06-08T04:06:51.984Z,27.30
2018-06-08T04:09:20.499Z,31.43
2018-06-08T04:11:49.121Z,29.27
2018-06-08T04:14:17.576Z,25.80
2018-06-08T04:16:45.698Z,30.60
2018-06-08T04:19:14.127Z,30.53
2018-06-08T04:21:42.554Z,27.30
2018-06-08T04:24:10.972Z,29.80
2018-06-08T04:26:39.102Z,29.33
2018-06-08T04:29:07.501Z,34.03
2018-06-08T04:31:35.637Z,40.87
2018-06-08T04:34:03.953Z,33.63
2018-06-08T04:36:32.417Z,26.13
2018-06-08T04:39:00.883Z,29.23
2018-06-08T04:41:29.310Z,28.03
2018-06-08T04:43:57.738Z,26.67
2018-06-08T04:46:26.175Z,24.13
2018-06-08T04:48:54.598Z,31.50
2018-06-08T04:51:22.734Z,24.80
2018-06-08T04:53:50.917Z,24.00
2018-06-08T04:56:19.140Z,24.97
2018-06-08T04:58:47.277Z,26.20
2018-06-08T05:01:15.429Z,26.53
2018-06-08T05:03:43.555Z,25.30
2018-06-08T05:06:11.985Z,24.53
2018-06-08T05:08:40.644Z,22.30
2018-06-08T05:11:08.763Z,24.83
2018-06-08T05:13:36.888Z,26.27
2018-06-08T05:16:05.337Z,23.10
2018-06-08T05:18:33.764Z,29.73
2018-06-08T05:21:02.289Z,35.70
2018-06-08T05:23:30.394Z,29.80
2018-06-08T05:25:58.915Z,31.80
2018-06-08T05:28:27.070Z,30.03
2018-06-08T05:30:55.499Z,50.73
2018-06-08T05:33:23.641Z,39.70
2018-06-08T05:35:51.756Z,62.97
2018-06-08T05:38:19.864Z,58.57
2018-06-08T05:40:47.991Z,61.23
2018-06-08T05:43:16.113Z,74.60
2018-06-08T05:45:44.628Z,53.33
2018-06-08T05:48:13.090Z,58.30
2018-06-08T05:50:41.199Z,67.00
2018-06-08T05:53:09.644Z,65.40
2018-06-08T05:55:38.049Z,71.47
2018-06-08T05:58:06.672Z,54.47
2018-06-08T06:00:34.783Z,51.90
2018-06-08T06:03:02.917Z,50.07
2018-06-08T06:05:31.365Z,109.73
2018-06-08T06:07:59.491Z,55.07
2018-06-08T06:10:27.938Z,45.80
2018-06-08T06:12:56.393Z,48.13
2018-06-08T06:15:24.833Z,49.93
2018-06-08T06:17:53.235Z,55.67
2018-06-08T06:20:21.371Z,47.00
2018-06-08T06:22:49.794Z,44.93
2018-06-08T06:25:18.311Z,38.90
2018-06-08T06:27:46.718Z,45.40
2018-06-08T06:30:14.829Z,38.37
2018-06-08T06:32:43.249Z,39.60
2018-06-08T06:35:11.454Z,41.10
2018-06-08T06:37:39.860Z,45.53
2018-06-08T06:40:08.381Z,45.30
2018-06-08T06:42:36.512Z,46.27
2018-06-08T06:45:06.118Z,50.83
2018-06-08T06:47:34.636Z,43.87
2018-06-08T06:50:02.758Z,39.87
2018-06-08T06:52:31.172Z,37.47
2018-06-08T06:54:59.575Z,38.90
2018-06-08T06:57:28.003Z,39.53
2018-06-08T06:59:56.158Z,37.43
2018-06-08T07:02:24.943Z,37.13
2018-06-08T07:04:53.048Z,37.80
2018-06-08T07:07:21.490Z,32.47
2018-06-08T07:09:49.877Z,38.37
2018-06-08T07:12:18.358Z,33.67
2018-06-08T07:14:46.473Z,24.87
2018-06-08T07:17:14.605Z,25.10
2018-06-08T07:19:43.016Z,27.53
2018-06-08T07:22:11.462Z,30.60
2018-06-08T07:24:39.914Z,33.67
2018-06-08T07:27:08.316Z,36.43
2018-06-08T07:29:36.747Z,26.50
2018-06-08T07:32:05.170Z,29.80
2018-06-08T07:34:33.619Z,30.00
2018-06-08T07:37:02.239Z,24.80
2018-06-08T07:39:30.805Z,21.23
2018-06-08T07:41:58.993Z,29.40
2018-06-08T07:44:27.122Z,19.43
2018-06-08T07:46:55.571Z,16.83
2018-06-08T07:49:24.006Z,16.20
2018-06-08T07:51:52.125Z,18.20
2018-06-08T07:54:20.558Z,17.57
2018-06-08T07:56:48.655Z,15.53
2018-06-08T07:59:16.794Z,18.03
2018-06-08T08:01:45.227Z,19.37
2018-06-08T08:04:13.642Z,15.73
2018-06-08T08:06:42.206Z,19.17
2018-06-08T08:09:10.447Z,17.17
2018-06-08T08:11:38.948Z,14.53
2018-06-08T08:14:07.521Z,12.87
2018-06-08T08:16:36.058Z,17.10
2018-06-08T08:19:04.503Z,11.80
2018-06-08T08:21:32.974Z,10.67
2018-06-08T08:24:01.096Z,12.47
2018-06-08T08:26:29.652Z,13.10
2018-06-08T08:28:58.099Z,13.43
2018-06-08T08:31:26.503Z,18.57
2018-06-08T08:33:54.908Z,12.67
2018-06-08T08:36:23.341Z,14.43
2018-06-08T08:38:51.573Z,10.13
2018-06-08T08:41:20.042Z,10.23
2018-06-08T08:43:48.463Z,10.23
2018-06-08T08:46:16.929Z,12.70
2018-06-08T08:48:45.353Z,12.37
2018-06-08T08:51:13.475Z,10.00
2018-06-08T08:53:42.056Z,24.87
2018-06-08T08:56:10.451Z,12.67
2018-06-08T08:58:38.554Z,10.07
2018-06-08T09:01:06.992Z,9.40
2018-06-08T09:03:35.523Z,8.50
2018-06-08T09:06:03.661Z,11.00
2018-06-08T09:08:32.087Z,8.60
2018-06-08T09:11:00.531Z,12.83
2018-06-08T09:13:28.925Z,11.63
2018-06-08T09:15:57.340Z,8.90
2018-06-08T09:18:25.784Z,8.30
2018-06-08T09:20:54.349Z,8.27
2018-06-08T09:23:22.876Z,9.37
2018-06-08T09:25:51.283Z,10.20
2018-06-08T09:28:19.722Z,9.63
2018-06-08T09:30:48.147Z,8.53
2018-06-08T09:33:16.682Z,8.63
2018-06-08T09:35:45.139Z,9.50
2018-06-08T09:38:13.560Z,10.77
2018-06-08T09:40:41.971Z,15.10
2018-06-08T09:43:10.529Z,9.90
2018-06-08T09:45:38.669Z,9.70
2018-06-08T09:48:07.054Z,12.17
2018-06-08T09:50:35.180Z,10.27
2018-06-08T09:53:03.594Z,8.97
2018-06-08T09:55:31.746Z,8.90
2018-06-08T09:58:00.257Z,15.37
2018-06-08T10:00:33.877Z,10.37
2018-06-08T10:03:02.285Z,12.00
2018-06-08T10:05:30.760Z,11.10
2018-06-08T10:07:58.973Z,16.10
2018-06-08T10:10:27.093Z,12.37
2018-06-08T10:12:55.645Z,13.37
2018-06-08T10:15:24.143Z,13.17
2018-06-08T10:17:52.285Z,13.17
2018-06-08T10:20:20.669Z,9.70
2018-06-08T10:22:49.125Z,12.50
2018-06-08T10:25:17.697Z,9.40
2018-06-08T10:27:45.807Z,9.00
2018-06-08T10:30:14.288Z,9.43
2018-06-08T10:32:42.429Z,9.40
2018-06-08T10:35:10.518Z,17.77
2018-06-08T10:37:38.599Z,6.70
2018-06-08T10:40:07.027Z,11.60
2018-06-08T10:42:35.446Z,8.13
2018-06-08T10:45:04.008Z,24.80
2018-06-08T10:47:32.524Z,8.80
2018-06-08T10:50:00.970Z,8.40
2018-06-08T10:52:29.113Z,7.90
2018-06-08T10:54:57.221Z,9.07
2018-06-08T10:57:30.163Z,67.37
2018-06-08T10:59:58.335Z,9.57
2018-06-08T11:02:26.542Z,9.27
2018-06-08T11:04:54.952Z,8.03
2018-06-08T11:07:23.388Z,11.03
2018-06-08T11:09:51.821Z,9.77
2018-06-08T11:12:20.309Z,10.67
2018-06-08T11:14:49.171Z,22.07
2018-06-08T11:17:17.608Z,10.57
2018-06-08T11:19:46.054Z,9.50
2018-06-08T11:22:14.182Z,8.70
2018-06-08T11:24:42.585Z,8.73
2018-06-08T11:27:11.015Z,8.73
2018-06-08T11:29:39.180Z,9.70
2018-06-08T11:32:07.645Z,10.30
2018-06-08T11:34:36.068Z,7.53
2018-06-08T11:37:04.244Z,8.10
2018-06-08T11:39:32.736Z,7.13
2018-06-08T11:42:01.102Z,5.90
2018-06-08T11:44:29.662Z,7.33
2018-06-08T11:46:58.257Z,7.03
2018-06-08T11:49:26.674Z,6.60
2018-06-08T11:51:55.113Z,9.77
2018-06-08T11:54:23.708Z,8.40
2018-06-08T11:56:52.118Z,6.40
2018-06-08T11:59:20.632Z,6.47
2018-06-08T12:01:49.076Z,13.77
2018-06-08T12:04:17.197Z,6.97
2018-06-08T12:06:45.663Z,7.17
2018-06-08T12:09:14.081Z,10.13
2018-06-08T12:11:42.487Z,6.83
2018-06-08T12:14:10.902Z,6.13
2018-06-08T12:16:39.023Z,5.87
2018-06-08T12:19:07.446Z,7.17
2018-06-08T12:21:35.880Z,7.07
2018-06-08T12:24:03.985Z,7.93
2018-06-08T12:26:32.211Z,6.37
2018-06-08T12:29:00.411Z,6.43
2018-06-08T12:31:28.488Z,7.33
2018-06-08T12:33:56.969Z,7.23
2018-06-08T12:36:25.387Z,5.97
2018-06-08T12:38:53.814Z,5.30
2018-06-08T12:41:22.215Z,11.00
2018-06-08T12:43:50.639Z,9.03
2018-06-08T12:46:19.055Z,11.67
2018-06-08T12:48:47.539Z,12.33
2018-06-08T12:51:15.953Z,9.37
2018-06-08T12:53:44.376Z,6.33
2018-06-08T12:56:12.539Z,8.93
2018-06-08T12:58:40.651Z,7.10
2018-06-08T13:01:09.206Z,9.33
2018-06-08T13:03:37.820Z,10.33
2018-06-08T13:06:06.354Z,10.00
2018-06-08T13:08:34.997Z,6.67
2018-06-08T13:11:03.527Z,7.53
2018-06-08T13:13:31.679Z,7.10
2018-06-08T13:16:00.158Z,7.37
2018-06-08T13:18:28.566Z,9.43
2018-06-08T13:20:57.011Z,6.40
2018-06-08T13:23:25.521Z,9.33
2018-06-08T13:25:53.628Z,7.17
2018-06-08T13:28:21.733Z,7.00
2018-06-08T13:30:49.857Z,7.27
2018-06-08T13:33:18.386Z,6.67
2018-06-08T13:35:46.526Z,12.50
2018-06-08T13:38:14.654Z,13.63
2018-06-08T13:40:43.068Z,6.97
2018-06-08T13:43:11.191Z,6.80
2018-06-08T13:45:39.314Z,9.10
2018-06-08T13:48:07.755Z,6.30
2018-06-08T13:50:36.258Z,8.03
2018-06-08T13:53:04.377Z,7.23
2018-06-08T13:55:32.492Z,7.63
2018-06-08T13:58:00.894Z,5.73
2018-06-08T14:00:29.043Z,9.37
2018-06-08T14:02:57.577Z,11.67
2018-06-08T14:05:26.043Z,36.80
2018-06-08T14:07:54.493Z,18.37
2018-06-08T14:10:22.609Z,10.90
2018-06-08T14:12:50.758Z,8.20
2018-06-08T14:15:18.870Z,17.67
2018-06-08T14:17:47.340Z,30.13
2018-06-08T14:20:15.474Z,32.53
2018-06-08T14:22:43.993Z,15.30
2018-06-08T14:25:12.455Z,18.63
2018-06-08T14:27:40.601Z,20.53
2018-06-08T14:30:08.801Z,13.40
2018-06-08T14:32:37.016Z,15.80
2018-06-08T14:35:05.581Z,22.73
2018-06-08T14:37:34.113Z,11.27
2018-06-08T14:40:02.262Z,25.67
2018-06-08T14:42:30.514Z,14.67
2018-06-08T14:44:58.981Z,15.30
2018-06-08T14:47:27.153Z,19.77
2018-06-08T14:49:55.642Z,16.73
2018-06-08T14:52:23.911Z,11.33
2018-06-08T14:54:52.069Z,14.00
2018-06-08T14:57:20.674Z,19.23
2018-06-08T14:59:49.290Z,11.40
2018-06-08T15:02:17.508Z,12.27
2018-06-08T15:04:46.069Z,12.23
2018-06-08T15:07:14.674Z,10.30
2018-06-08T15:09:42.946Z,12.03
2018-06-08T15:12:11.554Z,14.50
2018-06-08T15:14:39.722Z,9.47
2018-06-08T15:17:08.161Z,15.63
2018-06-08T15:19:36.637Z,17.60
2018-06-08T15:22:04.770Z,11.43
2018-06-08T15:24:33.287Z,16.83
2018-06-08T15:27:01.410Z,13.73
2018-06-08T15:29:29.884Z,11.47
2018-06-08T15:31:58.396Z,11.93
2018-06-08T15:34:26.881Z,10.17
2018-06-08T15:36:55.019Z,10.40
2018-06-08T15:39:23.611Z,9.40
2018-06-08T15:41:51.789Z,10.40
2018-06-08T15:44:19.966Z,11.57
2018-06-08T15:46:48.994Z,12.70
2018-06-08T15:49:18.150Z,12.67
2018-06-08T15:51:47.385Z,15.53
2018-06-08T15:54:15.684Z,13.20
2018-06-08T15:56:44.661Z,13.93
2018-06-08T15:59:13.237Z,12.30
2018-06-08T16:01:41.710Z,11.30
2018-06-08T16:04:10.106Z,12.33
2018-06-08T16:06:38.623Z,9.53
2018-06-08T16:09:07.838Z,9.33
2018-06-08T16:11:36.314Z,12.10
2018-06-08T16:14:04.463Z,7.73
2018-06-08T16:16:33.009Z,7.17
2018-06-08T16:19:01.606Z,11.17
2018-06-08T16:21:30.312Z,9.73
2018-06-08T16:23:58.770Z,11.07
2018-06-08T16:26:27.253Z,23.70
2018-06-08T16:28:55.744Z,18.90
2018-06-08T16:31:24.223Z,12.77
2018-06-08T16:33:52.712Z,18.77
2018-06-08T16:36:21.294Z,25.37
2018-06-08T16:38:49.835Z,17.23
2018-06-08T16:41:18.371Z,12.23
2018-06-08T16:43:46.868Z,10.00
2018-06-08T16:46:15.395Z,15.77
2018-06-08T16:48:43.867Z,16.03
2018-06-08T16:51:12.043Z,15.03
2018-06-08T16:53:40.484Z,16.40
2018-06-08T16:56:08.631Z,8.70
2018-06-08T16:58:36.791Z,13.40
2018-06-08T17:01:05.380Z,17.03
2018-06-08T17:03:33.529Z,11.40
2018-06-08T17:06:01.948Z,17.57
2018-06-08T17:08:30.409Z,20.53
2018-06-08T17:10:58.865Z,13.97
2018-06-08T17:13:27.177Z,11.83
2018-06-08T17:15:55.328Z,10.77
2018-06-08T17:18:24.006Z,8.73
2018-06-08T17:20:52.459Z,17.13
2018-06-08T17:23:20.927Z,8.93
2018-06-08T17:25:49.439Z,9.20
2018-06-08T17:28:17.959Z,8.10
2018-06-08T17:30:46.935Z,14.80
2018-06-08T17:33:15.448Z,17.00
2018-06-08T17:35:43.919Z,8.90
2018-06-08T17:38:12.406Z,7.23
2018-06-08T17:40:40.862Z,14.13
2018-06-08T17:43:09.482Z,9.03
2018-06-08T17:45:38.140Z,10.40
2018-06-08T17:48:06.614Z,12.27
2018-06-08T17:50:35.240Z,9.77
2018-06-08T17:53:03.754Z,10.93
2018-06-08T17:55:31.985Z,10.53
2018-06-08T17:58:00.227Z,9.80
2018-06-08T18:00:28.744Z,11.60
2018-06-08T18:02:56.980Z,10.53
2018-06-08T18:05:25.590Z,10.20
2018-06-08T18:07:53.789Z,12.07
2018-06-08T18:10:22.819Z,18.53
2018-06-08T18:12:50.996Z,11.90
2018-06-08T18:15:19.151Z,15.83
2018-06-08T18:17:47.468Z,14.40
2018-06-08T18:20:15.554Z,8.00
2018-06-08T18:22:44.082Z,11.07
2018-06-08T18:25:12.263Z,10.33
2018-06-08T18:27:40.541Z,10.60
2018-06-08T18:30:09.154Z,14.07
2018-06-08T18:32:37.286Z,9.37
2018-06-08T18:35:05.710Z,14.40
2018-06-08T18:37:33.938Z,12.77
2018-06-08T18:40:02.136Z,13.17
2018-06-08T18:42:30.461Z,13.13
2018-06-08T18:44:59.017Z,13.27
2018-06-08T18:47:27.774Z,17.60
2018-06-08T18:49:55.905Z,12.97
2018-06-08T18:52:25.244Z,18.67
2018-06-08T18:54:53.766Z,12.73
2018-06-08T18:57:22.238Z,20.63
2018-06-08T18:59:50.406Z,18.03
2018-06-08T19:02:18.582Z,12.83
2018-06-08T19:04:46.799Z,19.30
2018-06-08T19:07:15.093Z,19.60
2018-06-08T19:09:43.800Z,20.27
2018-06-08T19:12:12.318Z,17.70
2018-06-08T19:14:41.703Z,17.73
2018-06-08T19:17:11.334Z,17.90
2018-06-08T19:19:39.866Z,14.77
2018-06-08T19:22:08.209Z,15.83
2018-06-08T19:24:36.973Z,16.07
2018-06-08T19:27:05.841Z,18.67
2018-06-08T19:29:34.430Z,17.93
2018-06-08T19:32:02.584Z,16.93
2018-06-08T19:34:30.720Z,18.43
2018-06-08T19:36:58.937Z,19.40
2018-06-08T19:39:27.467Z,18.83
2018-06-08T19:41:56.053Z,19.63
2018-06-08T19:44:24.723Z,13.77
2018-06-08T19:46:52.887Z,15.33
2018-06-08T19:49:21.079Z,15.77
2018-06-08T19:51:49.623Z,20.40
2018-06-08T19:54:18.162Z,20.70
2018-06-08T19:56:46.999Z,13.70
2018-06-08T19:59:16.127Z,14.43
2018-06-08T20:01:44.661Z,18.73
2018-06-08T20:04:13.153Z,15.90
2018-06-08T20:06:41.412Z,18.37
2018-06-08T20:09:10.503Z,14.40
2018-06-08T20:11:39.010Z,15.90
2018-06-08T20:14:08.386Z,17.07
2018-06-08T20:16:36.935Z,14.77
2018-06-08T20:19:06.380Z,17.80
2018-06-08T20:21:35.262Z,17.53
2018-06-08T20:24:03.453Z,19.40
2018-06-08T20:26:31.672Z,13.50
2018-06-08T20:29:00.191Z,17.23
2018-06-08T20:31:28.392Z,19.23
2018-06-08T20:33:56.939Z,16.47
2018-06-08T20:36:25.147Z,18.63
2018-06-08T20:38:54.140Z,24.17
2018-06-08T20:41:22.617Z,12.73
2018-06-08T20:43:51.342Z,17.37
2018-06-08T20:46:19.566Z,14.50
2018-06-08T20:48:48.052Z,20.23
2018-06-08T20:51:16.545Z,16.10
2018-06-08T20:53:45.079Z,20.43
2018-06-08T20:56:13.653Z,15.50
2018-06-08T20:58:42.213Z,16.63
2018-06-08T21:01:11.602Z,21.70
2018-06-08T21:03:39.858Z,13.20
2018-06-08T21:06:08.410Z,16.83
2018-06-08T21:08:36.943Z,16.40
2018-06-08T21:11:05.620Z,22.70
2018-06-08T21:13:33.811Z,12.30
2018-06-08T21:16:02.439Z,10.70
2018-06-08T21:18:31.241Z,12.20
2018-06-08T21:21:00.392Z,11.60
2018-06-08T21:23:28.589Z,9.67
2018-06-08T21:25:56.717Z,13.90
2018-06-08T21:28:24.849Z,11.67
2018-06-08T21:30:53.337Z,13.70
2018-06-08T21:33:22.122Z,14.03
2018-06-08T21:35:50.773Z,13.20
2018-06-08T21:38:19.243Z,17.30
2018-06-08T21:40:47.371Z,16.27
2018-06-08T21:43:15.536Z,17.23
2018-06-08T21:45:44.075Z,20.30
2018-06-08T21:48:12.292Z,16.50
2018-06-08T21:50:40.719Z,14.80
2018-06-08T21:53:08.873Z,13.97
2018-06-08T21:55:37.111Z,16.40
2018-06-08T21:58:05.671Z,14.70
2018-06-08T22:00:33.851Z,14.17
2018-06-08T22:03:02.419Z,21.50
2018-06-08T22:05:30.583Z,16.67
2018-06-08T22:07:59.049Z,18.70
2018-06-08T22:10:27.587Z,12.77
2018-06-08T22:12:56.055Z,19.80
2018-06-08T22:15:24.509Z,20.10
2018-06-08T22:17:53.038Z,16.60
2018-06-08T22:20:21.285Z,14.20
2018-06-08T22:22:49.435Z,12.10
2018-06-08T22:25:17.879Z,24.23
2018-06-08T22:27:46.461Z,15.77
2018-06-08T22:30:14.915Z,16.40
2018-06-08T22:32:43.427Z,16.73
2018-06-08T22:35:11.555Z,12.60
2018-06-08T22:37:39.684Z,19.13
2018-06-08T22:40:07.915Z,21.67
2018-06-08T22:42:36.122Z,11.07
2018-06-08T22:45:04.643Z,14.93
2018-06-08T22:47:32.877Z,11.90
2018-06-08T22:50:01.070Z,14.80
2018-06-08T22:52:29.565Z,12.50
2018-06-08T22:54:57.981Z,12.33
2018-06-08T22:57:26.162Z,15.17
2018-06-08T22:59:54.293Z,11.50
2018-06-08T23:02:22.739Z,15.90
2018-06-08T23:04:51.312Z,14.23
2018-06-08T23:07:19.745Z,12.80
2018-06-08T23:09:48.186Z,17.93
2018-06-08T23:12:16.297Z,18.03
2018-06-08T23:14:44.456Z,14.80
2018-06-08T23:17:12.659Z,16.00
2018-06-08T23:19:41.075Z,15.10
2018-06-08T23:22:09.558Z,15.90
2018-06-08T23:24:38.102Z,17.83
2018-06-08T23:27:06.542Z,13.30
2018-06-08T23:29:34.655Z,16.03
2018-06-08T23:32:02.837Z,18.53
2018-06-08T23:34:30.979Z,24.23
2018-06-08T23:36:59.464Z,13.50
2018-06-08T23:39:27.565Z,17.00
2018-06-08T23:41:56.115Z,16.77
2018-06-08T23:44:24.209Z,14.63
2018-06-08T23:46:52.671Z,20.60
2018-06-08T23:49:20.785Z,20.27
2018-06-08T23:51:48.897Z,14.93
2018-06-08T23:54:17.128Z,16.47
2018-06-08T23:56:45.230Z,16.70
2018-06-08T23:59:13.375Z,14.60
